createdAt,value
2022-11-25T00:01:23.300Z,99900.06
2022-11-25T00:10:25.892Z,99928.25
2022-11-25T00:16:06.462Z,99920.88
2022-11-25T00:21:36.732Z,99948.94
2022-11-25T00:24:11.002Z,99958.16
2022-11-25T00:29:42.832Z,99971.94
2022-11-25T00:32:18.620Z,99983.50
2022-11-25T00:34:57.965Z,99981.69
2022-11-25T00:38:05.259Z,99967.06
2022-11-25T00:44:27.889Z,99990.38
2022-11-25T00:47:43.838Z,100020.28
2022-11-25T00:53:22.226Z,100020.94
2022-11-25T00:56:10.801Z,100018.09
2022-11-25T01:02:01.889Z,100044.63
2022-11-25T01:04:57.386Z,100039.13
2022-11-25T01:07:46.370Z,100065.16
2022-11-25T01:10:19.127Z,100058.78
2022-11-25T01:16:39.881Z,100057.25
2022-11-25T01:19:22.243Z,100058.78
2022-11-25T01:21:53.309Z,100068.03
2022-11-25T01:24:26.650Z,100078.94
2022-11-25T01:26:59.998Z,100073.88
2022-11-25T01:29:59.210Z,100083.63
2022-11-25T01:33:00.445Z,100080.25
2022-11-25T01:35:39.990Z,100085.13
2022-11-25T01:38:36.495Z,100087.13
2022-11-25T01:41:15.110Z,100124.63
2022-11-25T01:43:55.506Z,100121.94
2022-11-25T01:47:08.729Z,100120.09
2022-11-25T01:50:02.653Z,100126.97
2022-11-25T01:53:08.354Z,100137.22
2022-11-25T01:55:43.476Z,100143.22
2022-11-25T01:58:17.297Z,100136.03
2022-11-25T02:00:53.725Z,100141.94
2022-11-25T02:04:17.968Z,100155.06
2022-11-25T02:09:52.017Z,100175.56
2022-11-25T02:12:23.264Z,100166.47
2022-11-25T02:14:58.114Z,100170.97
2022-11-25T02:17:56.275Z,100172.06
2022-11-25T02:20:29.725Z,100186.00
2022-11-25T02:23:08.796Z,100194.06
2022-11-25T02:25:52.638Z,100205.63
2022-11-25T02:28:27.656Z,100211.63
2022-11-25T02:31:02.031Z,100210.44
2022-11-25T02:33:35.769Z,100225.19
2022-11-25T02:36:06.921Z,100227.25
2022-11-25T02:38:40.774Z,100222.09
2022-11-25T02:42:04.561Z,100279.69
2022-11-25T02:47:37.118Z,100261.00
2022-11-25T02:50:24.281Z,100254.56
2022-11-25T03:35:18.803Z,100349.81
2022-11-25T03:49:16.943Z,100358.50
2022-11-25T03:54:58.052Z,100381.81
2022-11-25T03:57:35.055Z,100392.38
2022-11-25T04:00:11.576Z,100396.84
2022-11-25T04:03:05.569Z,100438.72
2022-11-25T04:05:44.493Z,100433.09
2022-11-25T04:08:30.711Z,100415.22
2022-11-25T04:11:19.343Z,100416.25
2022-11-25T04:13:48.246Z,100408.69
2022-11-25T04:40:42.876Z,100473.00
2022-11-25T04:43:41.262Z,100477.91
2022-11-25T04:46:20.676Z,100472.38
2022-11-25T04:49:05.970Z,100470.13
2022-11-25T05:06:35.676Z,100504.19
2022-11-25T05:09:15.398Z,100511.50
2022-11-25T05:11:58.252Z,100531.50
2022-11-25T05:14:44.850Z,100530.75
2022-11-25T05:17:26.989Z,100536.50
2022-11-25T05:25:30.182Z,100542.00
2022-11-25T05:30:40.480Z,100554.22
2022-11-25T05:36:09.867Z,100565.53
2022-11-25T05:44:59.276Z,100578.84
2022-11-25T05:47:35.864Z,100616.13
2022-11-25T05:50:05.579Z,100620.78
2022-11-25T05:52:57.624Z,100643.59
2022-11-25T05:55:25.981Z,100626.59
2022-11-25T05:57:58.556Z,100619.38
2022-11-25T06:00:28.822Z,100624.94
2022-11-25T06:03:26.108Z,100620.41
2022-11-25T06:05:57.178Z,100615.31
2022-11-25T06:08:27.695Z,100633.81
2022-11-25T06:11:03.754Z,100634.06
2022-11-25T06:13:52.846Z,100646.50
2022-11-25T06:16:24.516Z,100651.56
2022-11-25T06:19:07.921Z,100652.47
2022-11-25T06:21:36.530Z,100643.44
2022-11-25T06:24:07.649Z,100648.84
2022-11-25T06:26:38.672Z,100673.84
2022-11-25T06:29:17.385Z,100675.56
2022-11-25T06:31:46.693Z,100671.50
2022-11-25T06:34:18.245Z,100689.75
2022-11-25T06:36:47.678Z,100687.50
2022-11-25T06:39:17.485Z,100697.13
2022-11-25T06:41:47.369Z,100703.50
2022-11-25T06:44:15.973Z,100716.81
2022-11-25T06:46:53.486Z,100724.03
2022-11-25T06:49:22.235Z,100729.16
2022-11-25T06:51:58.685Z,100751.81
2022-11-25T06:54:31.615Z,100742.66
2022-11-25T06:57:02.820Z,100747.53
2022-11-25T06:59:30.941Z,100766.97
2022-11-25T07:04:42.498Z,100773.00
2022-11-25T07:07:36.388Z,100759.59
2022-11-25T07:13:37.054Z,100788.69
2022-11-25T07:16:14.474Z,100801.13
2022-11-25T07:18:53.580Z,100799.00
2022-11-25T07:21:32.162Z,100813.31
2022-11-25T07:24:05.403Z,100815.03
2022-11-25T07:32:25.786Z,100888.53
2022-11-25T07:35:14.461Z,100853.84
2022-11-25T08:13:02.644Z,100938.63
2022-11-25T08:15:42.540Z,100940.63
2022-11-25T08:23:55.830Z,100953.41
2022-11-25T08:42:14.793Z,100980.88
2022-11-25T08:56:47.022Z,100984.16
2022-11-25T09:03:04.780Z,101002.41
2022-11-25T09:30:27.979Z,101077.41
2022-11-25T09:39:32.811Z,101100.91
2022-11-25T09:51:15.964Z,101137.44
2022-11-25T09:54:43.521Z,101144.22
2022-11-25T10:06:37.952Z,101183.84
2022-11-25T10:15:18.168Z,101183.34
2022-11-25T10:20:44.169Z,101188.16
2022-11-25T10:26:00.465Z,101189.81
2022-11-25T10:28:38.631Z,101216.47
2022-11-25T10:31:20.323Z,101205.38
2022-11-25T10:34:07.229Z,101216.47
2022-11-25T10:37:28.563Z,101210.66
2022-11-25T10:40:05.993Z,101220.59
2022-11-25T10:42:58.123Z,101219.19
2022-11-25T10:45:33.786Z,101226.41
2022-11-25T10:48:18.694Z,101230.38
2022-11-25T10:51:03.614Z,101242.00
2022-11-25T10:53:40.343Z,101237.03
2022-11-25T10:56:17.527Z,101242.28
2022-11-25T11:01:33.431Z,101257.56
2022-11-25T11:04:15.371Z,101262.13
2022-11-25T11:06:47.183Z,101264.38
2022-11-25T11:09:47.402Z,101265.22
2022-11-25T11:12:25.636Z,101263.22
2022-11-25T11:15:20.790Z,101263.09
2022-11-25T11:17:49.679Z,101264.78
2022-11-25T11:20:25.995Z,101264.59
2022-11-25T11:23:09.428Z,101279.50
2022-11-25T11:25:41.915Z,101280.94
2022-11-25T11:28:38.204Z,101286.47
2022-11-25T11:31:10.957Z,101299.03
2022-11-25T11:33:49.701Z,101298.75
2022-11-25T11:36:33.405Z,101301.75
2022-11-25T11:39:26.192Z,101296.81
2022-11-25T11:42:15.993Z,101308.56
2022-11-25T11:45:08.161Z,101307.28
2022-11-25T11:50:35.451Z,101313.59
2022-11-25T11:53:31.588Z,101321.25
2022-11-25T11:59:24.763Z,101316.88
2022-11-25T12:02:12.188Z,101318.47
2022-11-25T12:04:45.199Z,101321.88
2022-11-25T12:07:20.292Z,101317.47
2022-11-25T12:10:00.112Z,101315.94
2022-11-25T12:12:35.374Z,101302.34
2022-11-25T12:15:14.361Z,101309.00
2022-11-25T12:17:54.284Z,101291.44
2022-11-25T12:20:34.252Z,101303.19
2022-11-25T12:23:08.872Z,101306.28
2022-11-25T12:25:40.851Z,101318.81
2022-11-25T12:28:14.872Z,101315.97
2022-11-25T12:31:01.871Z,101315.72
2022-11-25T12:33:44.148Z,101319.94
2022-11-25T12:36:18.073Z,101316.66
2022-11-25T12:38:50.244Z,101327.59
2022-11-25T12:41:38.700Z,101327.31
2022-11-25T12:44:17.265Z,101331.56
2022-11-25T12:46:49.357Z,101331.00
2022-11-25T12:49:22.137Z,101345.47
2022-11-25T12:52:14.489Z,101331.16
2022-11-25T12:55:23.349Z,101339.81
2022-11-25T12:58:32.018Z,101333.56
2022-11-25T13:01:31.728Z,101345.19
2022-11-25T13:04:51.980Z,101336.09
2022-11-25T13:07:33.275Z,101344.34
2022-11-25T13:10:33.020Z,101344.34
2022-11-25T13:13:21.138Z,101340.91
2022-11-25T13:15:53.663Z,101346.59
2022-11-25T13:18:25.662Z,101346.03
2022-11-25T13:20:58.912Z,101356.66
2022-11-25T13:23:49.039Z,101364.91
2022-11-25T13:26:39.551Z,101375.84
2022-11-25T13:29:32.629Z,101370.31
2022-11-25T13:32:06.531Z,101379.22
2022-11-25T13:34:36.589Z,101379.22
2022-11-25T13:37:37.025Z,101385.47
2022-11-25T13:40:22.948Z,101386.28
2022-11-25T13:42:53.504Z,101381.72
2022-11-25T13:45:32.212Z,101398.47
2022-11-25T13:48:08.317Z,101391.63
2022-11-25T13:51:03.354Z,101398.44
2022-11-25T13:53:34.167Z,101407.81
2022-11-25T13:56:16.424Z,101399.28
2022-11-25T13:59:18.343Z,101416.75
2022-11-25T14:02:14.921Z,101410.66
2022-11-25T14:05:00.081Z,101416.91
2022-11-25T14:07:40.929Z,101414.91
2022-11-25T14:10:28.348Z,101408.38
2022-11-25T14:13:07.480Z,101415.88
2022-11-25T14:15:51.389Z,101420.25
2022-11-25T14:21:53.334Z,101439.22
2022-11-25T14:24:31.132Z,101439.44
2022-11-25T14:27:01.873Z,101435.88
2022-11-25T14:29:40.063Z,101440.13
2022-11-25T14:32:16.328Z,101441.25
2022-11-25T14:34:49.148Z,101441.78
2022-11-25T14:37:26.573Z,101450.06
2022-11-25T14:40:05.217Z,101452.16
2022-11-25T14:42:40.624Z,101454.88
2022-11-25T14:45:34.017Z,101465.63
2022-11-25T14:48:15.384Z,101467.75
2022-11-25T14:50:56.958Z,101472.19
2022-11-25T14:53:30.944Z,101474.75
2022-11-25T14:56:00.925Z,101474.25
2022-11-25T14:58:31.452Z,101472.00
2022-11-25T15:01:04.586Z,101471.75
2022-11-25T15:03:33.430Z,101484.75
2022-11-25T15:06:04.907Z,101483.03
2022-11-25T15:08:42.049Z,101493.06
2022-11-25T15:11:16.126Z,101489.16
2022-11-25T15:13:48.364Z,101495.66
2022-11-25T15:16:22.143Z,101497.59
2022-11-25T15:18:53.132Z,101499.44
2022-11-25T15:21:25.637Z,101495.44
2022-11-25T15:23:54.449Z,101500.97
2022-11-25T15:26:24.884Z,101504.63
2022-11-25T15:28:59.165Z,101509.03
2022-11-25T15:31:30.305Z,101511.19
2022-11-25T15:34:01.238Z,101511.84
2022-11-25T15:36:29.845Z,101527.44
2022-11-25T15:39:15.311Z,101539.06
2022-11-25T15:41:46.804Z,101550.50
2022-11-25T15:44:25.109Z,101542.97
2022-11-25T15:46:59.358Z,101554.78
2022-11-25T15:49:28.247Z,101552.47
2022-11-25T15:52:00.913Z,101561.06
2022-11-25T15:54:32.951Z,101569.91
2022-11-25T15:57:05.203Z,101558.94
2022-11-25T15:59:52.705Z,101568.34
2022-11-25T16:02:50.345Z,101567.75
2022-11-25T16:05:37.543Z,101577.06
2022-11-25T16:08:30.425Z,101581.72
2022-11-25T16:11:00.902Z,101584.66
2022-11-25T16:13:31.875Z,101582.34
2022-11-25T16:16:19.236Z,101594.19
2022-11-25T16:19:06.990Z,101593.25
2022-11-25T16:22:02.275Z,101603.66
2022-11-25T16:24:38.445Z,101607.78
2022-11-25T16:27:15.920Z,101604.59
2022-11-25T16:29:57.490Z,101603.97
2022-11-25T16:32:29.073Z,101603.97
2022-11-25T16:34:58.983Z,101605.09
2022-11-25T16:37:30.585Z,101609.13
2022-11-25T16:39:59.043Z,101607.16
2022-11-25T16:42:28.466Z,101606.19
2022-11-25T16:44:57.847Z,101611.09
2022-11-25T16:47:28.742Z,101616.94
2022-11-25T16:49:58.111Z,101609.59
2022-11-25T16:52:26.831Z,101614.50
2022-11-25T16:54:56.633Z,101610.13
2022-11-25T16:57:25.721Z,101619.16
2022-11-25T17:00:01.225Z,101617.19
2022-11-25T17:02:42.769Z,101618.78
2022-11-25T17:05:21.837Z,101625.00
2022-11-25T17:07:54.300Z,101633.41
2022-11-25T17:10:33.372Z,101645.50
2022-11-25T17:13:06.373Z,101640.34
2022-11-25T17:15:53.256Z,101644.75
2022-11-25T17:18:27.826Z,101649.25
2022-11-25T17:21:06.736Z,101637.66
2022-11-25T17:23:36.292Z,101653.78
2022-11-25T17:26:15.596Z,101652.06
2022-11-25T17:28:44.460Z,101659.38
2022-11-25T17:31:19.211Z,101659.63
2022-11-25T17:33:55.627Z,101663.75
2022-11-25T17:36:34.081Z,101671.31
2022-11-25T17:39:12.239Z,101680.47
2022-11-25T17:41:47.370Z,101687.25
2022-11-25T17:44:29.634Z,101692.88
2022-11-25T17:49:58.587Z,101696.97
2022-11-25T17:52:39.767Z,101700.00
2022-11-25T17:55:09.314Z,101706.22
2022-11-25T17:58:01.233Z,101704.50
2022-11-25T18:00:44.251Z,101713.31
2022-11-25T18:03:31.318Z,101707.31
2022-11-25T18:06:03.802Z,101710.72
2022-11-25T18:08:34.580Z,101725.84
2022-11-25T18:11:07.131Z,101720.38
2022-11-25T18:13:41.756Z,101735.72
2022-11-25T18:16:11.268Z,101745.38
2022-11-25T18:18:41.552Z,101754.16
2022-11-25T18:21:14.126Z,101760.38
2022-11-25T18:23:43.947Z,101763.94
2022-11-25T18:26:13.342Z,101765.66
2022-11-25T18:28:42.333Z,101761.16
2022-11-25T18:31:15.326Z,101750.28
2022-11-25T18:33:45.279Z,101748.25
2022-11-25T18:36:21.965Z,101754.97
2022-11-25T18:38:55.040Z,101748.41
2022-11-25T18:41:24.644Z,101749.88
2022-11-25T18:43:54.253Z,101750.41
2022-11-25T18:46:24.417Z,101753.69
2022-11-25T18:48:54.797Z,101758.81
2022-11-25T18:51:27.683Z,101759.47
2022-11-25T18:54:00.280Z,101760.94
2022-11-25T18:56:30.959Z,101768.00
2022-11-25T18:59:01.075Z,101774.00
2022-11-25T19:01:30.630Z,101776.78
2022-11-25T19:04:00.913Z,101773.03
2022-11-25T19:06:45.876Z,101773.03
2022-11-25T19:09:18.373Z,101773.25
2022-11-25T19:12:05.615Z,101773.16
2022-11-25T19:14:40.034Z,101760.94
2022-11-25T19:17:28.067Z,101760.44
2022-11-25T19:20:04.441Z,101773.84
2022-11-25T19:22:55.565Z,101778.72
2022-11-25T19:25:27.816Z,101783.34
2022-11-25T19:28:02.597Z,101793.34
2022-11-25T19:30:37.424Z,101798.94
2022-11-25T19:33:12.190Z,101799.06
2022-11-25T19:35:41.709Z,101799.28
2022-11-25T19:38:22.077Z,101805.50
2022-11-25T19:40:55.771Z,101803.78
2022-11-25T19:43:27.512Z,101807.56
2022-11-25T19:45:57.979Z,101802.94
2022-11-25T19:48:32.180Z,101802.06
2022-11-25T19:53:51.230Z,101803.28
2022-11-25T19:56:22.820Z,101805.97
2022-11-25T19:58:52.832Z,101804.47
2022-11-25T20:01:23.486Z,101804.72
2022-11-25T20:06:57.295Z,101805.56
2022-11-25T20:09:26.253Z,101805.31
2022-11-25T20:11:59.691Z,101807.16
2022-11-25T20:14:36.409Z,101799.84
2022-11-25T20:17:13.082Z,101808.63
2022-11-25T20:19:41.603Z,101810.47
2022-11-25T20:22:18.016Z,101820.34
2022-11-25T20:24:49.675Z,101818.66
2022-11-25T20:27:18.751Z,101810.81
2022-11-25T20:29:48.351Z,101806.63
2022-11-25T20:32:24.999Z,101809.56
2022-11-25T20:34:54.462Z,101821.38
2022-11-25T20:37:25.084Z,101824.25
2022-11-25T20:39:55.539Z,101827.06
2022-11-25T20:42:26.117Z,101819.34
2022-11-25T20:44:57.700Z,101813.88
2022-11-25T20:47:29.482Z,101810.34
2022-11-25T20:49:57.970Z,101818.28
2022-11-25T20:52:32.415Z,101828.03
2022-11-25T20:55:01.808Z,101836.09
2022-11-25T20:57:30.312Z,101835.13
2022-11-25T20:59:58.879Z,101843.16
2022-11-25T21:02:28.118Z,101839.50
2022-11-25T21:04:56.938Z,101853.69
2022-11-25T21:07:26.600Z,101860.75
2022-11-25T21:09:56.506Z,101865.28
2022-11-25T21:12:24.658Z,101872.22
2022-11-25T21:14:52.974Z,101876.66
2022-11-25T21:17:21.140Z,101881.03
2022-11-25T21:19:49.499Z,101876.41
2022-11-25T21:22:18.232Z,101875.66
2022-11-25T21:24:46.879Z,101866.44
2022-11-25T21:27:26.156Z,101874.22
2022-11-25T21:29:55.009Z,101875.00
2022-11-25T21:32:25.568Z,101882.72
2022-11-25T21:34:54.185Z,101885.28
2022-11-25T21:37:33.505Z,101882.59
2022-11-25T21:40:02.457Z,101884.19
2022-11-25T21:42:33.768Z,101887.72
2022-11-25T21:45:03.286Z,101889.66
2022-11-25T21:47:32.920Z,101886.00
2022-11-25T21:50:01.920Z,101889.66
2022-11-25T21:52:30.995Z,101893.31
2022-11-25T21:55:01.041Z,101892.69
2022-11-25T21:57:35.667Z,101893.31
2022-11-25T22:00:07.437Z,101895.03
2022-11-25T22:02:54.712Z,101898.69
2022-11-25T22:05:29.228Z,101895.03
2022-11-25T22:07:57.934Z,101896.00
2022-11-25T22:10:27.756Z,101902.34
2022-11-25T22:12:59.791Z,101910.41
2022-11-25T22:15:28.182Z,101906.97
2022-11-25T22:17:59.871Z,101907.94
2022-11-25T22:20:34.085Z,101902.69
2022-11-25T22:23:03.887Z,101899.47
2022-11-25T22:25:35.411Z,101901.31
2022-11-25T22:28:09.044Z,101900.56
2022-11-25T22:30:40.726Z,101899.81
2022-11-25T22:33:12.254Z,101897.22
2022-11-25T22:35:40.870Z,101897.34
2022-11-25T22:38:15.782Z,101890.41
2022-11-25T22:40:51.209Z,101897.69
2022-11-25T22:43:29.218Z,101883.63
2022-11-25T22:45:59.234Z,101884.72
2022-11-25T22:48:34.143Z,101883.09
2022-11-25T22:51:13.776Z,101874.53
2022-11-25T22:53:50.415Z,101871.09
2022-11-25T22:56:22.566Z,101871.31
2022-11-25T22:58:54.194Z,101878.63
2022-11-25T23:01:22.742Z,101874.41
2022-11-25T23:03:52.588Z,101874.41
2022-11-25T23:06:22.732Z,101866.38
2022-11-25T23:08:55.073Z,101869.03
2022-11-25T23:11:24.514Z,101859.28
2022-11-25T23:13:55.807Z,101861.00
2022-11-25T23:16:25.467Z,101856.72
2022-11-25T23:18:54.625Z,101857.59
2022-11-25T23:21:25.957Z,101869.25
2022-11-25T23:23:55.059Z,101861.22
2022-11-25T23:26:24.549Z,101863.16
2022-11-25T23:28:57.979Z,101867.88
2022-11-25T23:31:26.930Z,101869.56
2022-11-25T23:33:55.514Z,101865.31
2022-11-25T23:36:26.419Z,101876.16
2022-11-25T23:38:58.716Z,101888.72
2022-11-25T23:41:29.646Z,101890.41
2022-11-25T23:44:11.850Z,101885.13
2022-11-25T23:46:42.253Z,101893.84
2022-11-25T23:49:21.977Z,101883.22
2022-11-25T23:51:51.240Z,101884.81
2022-11-25T23:54:22.493Z,101890.19
2022-11-25T23:56:50.916Z,101888.47
2022-11-25T23:59:24.988Z,101882.25
